Time;durP1;ratioP1;P1;durP2;ratioP2;P2;SDS_P1;SDS_P2;PMS_P1;PMS_P2;Temp;Humidity;BMP_temperature;BMP_pressure;BME280_temperature;BME280_humidity;BME280_pressure;Samples;Min_cycle;Max_cycle;Signal;HPM_P1;HPM_P2
2021/05/14 00:00:42;;;;;;;6.47;1.62;;;;;;;24.28;42.38;98483.41;4483133;32;34121;-61
2021/05/14 00:03:10;;;;;;;8.32;1.42;;;;;;;24.27;42.42;98476.31;4482588;32;33697;-63
2021/05/14 00:05:38;;;;;;;6.85;1.33;;;;;;;24.28;42.46;98477.13;4482821;32;34051;-62
2021/05/14 00:08:06;;;;;;;7.30;1.77;;;;;;;24.28;42.43;98469.78;4484420;32;34271;-62
2021/05/14 00:10:36;;;;;;;6.50;1.30;;;;;;;24.27;42.40;98479.03;4485082;31;34711;-62
2021/05/14 00:13:03;;;;;;;;;;;;;;;24.27;42.55;98478.22;4484785;32;33515;-62
2021/05/14 00:15:31;;;;;;;5.10;1.60;;;;;;;24.37;42.23;98472.84;4485097;32;34174;-60
2021/05/14 00:17:59;;;;;;;6.93;1.58;;;;;;;24.30;42.17;98480.44;4485112;32;34441;-63
2021/05/14 00:20:27;;;;;;;4.60;1.30;;;;;;;24.27;42.55;98478.22;4485018;32;33771;-62
2021/05/14 00:22:55;;;;;;;8.07;1.60;;;;;;;24.27;42.63;98480.94;4484706;32;33894;-61
2021/05/14 00:25:22;;;;;;;9.57;1.33;;;;;;;24.26;42.43;98474.69;4485059;32;33685;-62
2021/05/14 00:27:50;;;;;;;6.25;1.70;;;;;;;24.25;42.41;98472.19;4484937;32;34129;-60
2021/05/14 00:30:18;;;;;;;5.60;1.10;;;;;;;24.25;42.38;98485.81;4484866;32;34581;-61
2021/05/14 00:32:46;;;;;;;7.43;1.50;;;;;;;24.24;42.47;98481.47;4484783;32;34663;-63
2021/05/14 00:35:13;;;;;;;3.15;0.90;;;;;;;24.24;42.53;98484.19;4485073;32;34460;-61
2021/05/14 00:37:42;;;;;;;6.37;1.73;;;;;;;24.25;42.44;98485.81;4485031;32;33311;-62
2021/05/14 00:40:10;;;;;;;3.42;1.15;;;;;;;24.24;42.43;98487.75;4485026;32;33651;-63
2021/05/14 00:42:38;;;;;;;5.05;1.42;;;;;;;24.24;42.44;98492.37;4484438;32;34781;-61
2021/05/14 00:45:07;;;;;;;6.50;1.87;;;;;;;24.24;42.47;98485.00;4485114;32;34498;-61
2021/05/14 00:47:34;;;;;;;6.07;1.42;;;;;;;24.23;42.46;98486.09;4484935;32;33926;-61
2021/05/14 00:50:03;;;;;;;6.30;1.60;;;;;;;24.25;42.45;98483.09;4484801;32;33876;-62
2021/05/14 00:52:31;;;;;;;4.93;1.70;;;;;;;24.23;42.45;98483.38;4484665;32;34635;-62
2021/05/14 00:54:59;;;;;;;3.95;1.12;;;;;;;24.26;42.33;98487.50;4483636;32;34964;-62
2021/05/14 00:57:27;;;;;;;7.22;1.45;;;;;;;24.25;42.62;98489.41;4484970;32;33256;-63
2021/05/14 00:59:55;;;;;;;5.80;1.23;;;;;;;24.24;42.69;98498.63;4470605;32;33828;-62
2021/05/14 01:02:23;;;;;;;4.53;1.37;;;;;;;24.24;42.72;98497.81;4483429;32;34816;-63
2021/05/14 01:04:51;;;;;;;4.78;1.30;;;;;;;24.24;42.56;98500.53;4484772;32;33873;-62
2021/05/14 01:07:18;;;;;;;11.98;1.30;;;;;;;24.23;42.81;98502.47;4483409;32;33319;-62
2021/05/14 01:09:46;;;;;;;4.60;1.40;;;;;;;24.24;42.78;98500.53;4484395;32;33770;-63
2021/05/14 01:12:14;;;;;;;4.15;1.20;;;;;;;24.24;42.87;98501.38;4483094;32;33932;-61
2021/05/14 01:14:42;;;;;;;3.30;1.12;;;;;;;24.24;42.70;98495.91;4483918;32;34361;-62
2021/05/14 01:17:11;;;;;;;10.52;1.40;;;;;;;24.25;42.75;98500.31;4484640;32;33310;-62
2021/05/14 01:19:39;;;;;;;4.75;1.30;;;;;;;24.24;42.80;98501.38;4484380;32;33754;-61
2021/05/14 01:22:07;;;;;;;6.25;1.77;;;;;;;24.25;42.91;98504.91;4484557;32;33821;-62
2021/05/14 01:24:35;;;;;;;4.68;1.20;;;;;;;24.24;42.88;98504.09;4484465;32;33772;-61
2021/05/14 01:27:04;;;;;;;4.68;1.40;;;;;;;24.24;42.92;98497.81;4484442;32;33416;-62
2021/05/14 01:29:32;;;;;;;5.25;1.20;;;;;;;24.23;43.04;98499.72;4484551;32;33859;-63
2021/05/14 01:32:00;;;;;;;8.35;1.30;;;;;;;24.24;43.00;98500.53;4484103;32;34873;-61
2021/05/14 01:34:28;;;;;;;3.55;1.15;;;;;;;24.23;43.02;98501.63;4468551;32;33937;-61
2021/05/14 01:36:55;;;;;;;3.50;1.20;;;;;;;24.22;43.01;98498.09;4468874;32;32976;-62
2021/05/14 01:39:23;;;;;;;5.70;1.30;;;;;;;24.23;42.94;98499.72;4469051;32;33845;-62
2021/05/14 01:41:51;;;;;;;5.93;1.30;;;;;;;24.23;42.88;98501.63;4468778;32;33846;-63
2021/05/14 01:44:20;;;;;;;5.12;1.20;;;;;;;24.22;42.80;98502.72;4483483;32;34017;-61
2021/05/14 01:46:49;;;;;;;5.05;1.30;;;;;;;24.21;42.80;98495.66;4483242;32;34329;-62
2021/05/14 01:49:17;;;;;;;3.85;1.30;;;;;;;24.22;42.79;98502.72;4484638;32;33891;-62
2021/05/14 01:51:44;;;;;;;6.87;1.58;;;;;;;24.21;42.81;98496.47;4484502;32;34986;-61
2021/05/14 01:54:12;;;;;;;4.97;1.20;;;;;;;24.21;42.80;98492.91;4484137;32;33799;-62
2021/05/14 01:56:46;;;;;;;4.07;1.30;;;;;;;24.21;42.78;98495.66;4484481;32;34098;-62
2021/05/14 01:59:14;;;;;;;4.75;1.37;;;;;;;24.21;42.76;98498.38;4484176;32;33982;-62
2021/05/14 02:01:42;;;;;;;3.33;1.00;;;;;;;24.21;42.79;98498.38;4484300;32;33415;-61
2021/05/14 02:04:10;;;;;;;4.90;1.00;;;;;;;24.19;42.79;98499.44;4483894;32;33812;-61
2021/05/14 02:06:38;;;;;;;6.15;1.52;;;;;;;24.18;42.73;98495.06;4484185;32;33475;-62
2021/05/14 02:09:06;;;;;;;5.85;1.10;;;;;;;24.20;42.71;98497.53;4484553;32;33776;-62
2021/05/14 02:11:33;;;;;;;3.72;1.20;;;;;;;24.19;42.72;98493.97;4484517;32;34882;-62
2021/05/14 02:14:01;;;;;;;4.07;0.88;;;;;;;24.19;42.69;98496.69;4483970;32;34499;-61
2021/05/14 02:16:29;;;;;;;6.40;1.45;;;;;;;24.21;42.56;98496.47;4484459;32;33015;-61
2021/05/14 02:18:56;;;;;;;4.30;1.23;;;;;;;24.20;42.64;98500.25;4484253;32;33770;-62
2021/05/14 02:21:24;;;;;;;3.22;1.10;;;;;;;24.21;42.66;98507.37;4484167;32;34781;-62
2021/05/14 02:23:52;;;;;;;2.15;0.90;;;;;;;24.21;42.58;98506.53;4483875;32;33817;-62
2021/05/14 02:26:20;;;;;;;2.42;1.00;;;;;;;24.21;42.52;98504.63;4484420;32;33362;-60
2021/05/14 02:28:47;;;;;;;4.45;1.10;;;;;;;24.21;42.55;98504.63;4483898;32;33717;-62
2021/05/14 02:31:15;;;;;;;5.25;1.30;;;;;;;24.22;42.56;98510.91;4483142;32;33895;-62
2021/05/14 02:33:42;;;;;;;6.87;1.62;;;;;;;24.23;42.64;98509.81;4483551;32;34396;-61
2021/05/14 02:36:10;;;;;;;3.35;0.90;;;;;;;24.25;42.51;98518.53;4483792;32;33633;-63
2021/05/14 02:38:38;;;;;;;2.05;1.10;;;;;;;24.23;42.55;98502.47;4484344;32;33993;-63
2021/05/14 02:41:09;;;;;;;7.55;1.40;;;;;;;24.22;42.59;98514.44;4483913;32;33589;-61
2021/05/14 02:43:37;;;;;;;3.87;1.20;;;;;;;24.22;42.56;98508.19;4483920;32;33582;-62
2021/05/14 02:46:05;;;;;;;6.03;1.20;;;;;;;24.22;42.58;98513.63;4484119;32;33373;-62
2021/05/14 02:48:32;;;;;;;3.78;1.00;;;;;;;24.21;42.79;98512.81;4484270;32;33763;-62
2021/05/14 02:51:00;;;;;;;2.55;1.00;;;;;;;24.21;42.82;98517.44;4483615;32;34102;-60
2021/05/14 02:53:28;;;;;;;2.78;1.00;;;;;;;24.21;42.75;98522.91;4483781;32;34536;-61
2021/05/14 02:55:55;;;;;;;4.18;1.10;;;;;;;24.20;42.70;98522.06;4483921;32;33139;-62
2021/05/14 02:58:23;;;;;;;2.60;1.05;;;;;;;24.18;42.72;98521.50;4483737;32;34050;-62
2021/05/14 03:00:50;;;;;;;3.85;1.15;;;;;;;24.18;42.69;98521.50;4483895;32;34038;-62
2021/05/14 03:03:19;;;;;;;3.15;1.00;;;;;;;24.19;42.65;98525.88;4483852;32;33723;-61
2021/05/14 03:05:46;;;;;;;3.20;1.17;;;;;;;24.19;42.76;98529.41;4483884;32;33362;-61
2021/05/14 03:08:14;;;;;;;2.87;1.02;;;;;;;24.19;42.81;98525.88;4484001;32;33740;-62
2021/05/14 03:10:42;;;;;;;3.58;1.17;;;;;;;24.19;42.83;98523.13;4483787;32;33692;-62
2021/05/14 03:13:09;;;;;;;2.92;1.37;;;;;;;24.19;42.68;98515.78;4483351;32;33764;-62
2021/05/14 03:15:37;;;;;;;6.37;1.02;;;;;;;24.17;42.74;98517.97;4483862;32;33317;-62
2021/05/14 03:18:05;;;;;;;5.03;1.30;;;;;;;24.17;42.73;98528.03;4483894;32;34918;-62
2021/05/14 03:20:32;;;;;;;2.42;0.93;;;;;;;24.17;42.76;98523.41;4483820;32;34785;-61
2021/05/14 03:23:00;;;;;;;2.45;1.20;;;;;;;24.17;42.82;98530.78;4483274;32;33964;-61
2021/05/14 03:25:28;;;;;;;4.95;1.65;;;;;;;24.17;42.73;98530.78;4483872;32;33541;-61
2021/05/14 03:27:56;;;;;;;2.03;0.90;;;;;;;24.17;42.83;98533.50;4483687;32;33829;-62
2021/05/14 03:30:24;;;;;;;5.43;1.30;;;;;;;24.15;42.80;98541.94;4483586;32;33972;-62
2021/05/14 03:32:51;;;;;;;5.95;1.00;;;;;;;24.17;42.75;98547.13;4483016;32;34122;-61
2021/05/14 03:35:19;;;;;;;4.37;1.10;;;;;;;24.16;42.58;98546.31;4483033;32;32735;-60
2021/05/14 03:37:48;;;;;;;3.65;1.25;;;;;;;24.15;42.65;98544.66;4483739;32;33748;-61
2021/05/14 03:40:31;;;;;;;3.05;0.90;;;;;;;24.16;42.72;98549.03;4483215;32;35655;-62
2021/05/14 03:42:59;;;;;;;4.70;1.17;;;;;;;24.16;42.65;98553.66;4485027;32;33444;-61
2021/05/14 03:45:27;;;;;;;4.05;1.10;;;;;;;24.16;42.62;98559.13;4484484;32;33511;-62
2021/05/14 03:47:55;;;;;;;8.60;1.35;;;;;;;24.14;42.64;98558.53;4485590;32;33951;-61
2021/05/14 03:50:27;;;;;;;4.12;1.20;;;;;;;24.15;42.68;98554.72;4485173;32;33817;-63
2021/05/14 03:52:55;;;;;;;2.72;1.10;;;;;;;24.15;42.72;98558.28;4484892;32;34537;-62
2021/05/14 03:55:23;;;;;;;3.92;1.10;;;;;;;24.15;42.74;98557.44;4485094;32;33533;-62
2021/05/14 03:57:50;;;;;;;5.20;1.05;;;;;;;24.15;42.66;98557.44;4485179;32;34519;-62
2021/05/14 04:00:18;;;;;;;3.40;1.10;;;;;;;24.15;42.65;98557.44;4484976;32;33621;-62
2021/05/14 04:02:47;;;;;;;2.58;0.88;;;;;;;24.14;42.66;98564.81;4485016;32;33756;-61
2021/05/14 04:05:14;;;;;;;6.18;1.00;;;;;;;24.14;42.67;98556.62;4485124;32;34271;-62
2021/05/14 04:07:42;;;;;;;4.80;1.50;;;;;;;24.14;42.66;98561.25;4482524;32;34692;-62
2021/05/14 04:15:09;;;;;;;5.22;0.90;;;;;;;24.15;42.62;98576.53;4484654;32;33520;-62
2021/05/14 04:17:37;;;;;;;2.30;0.80;;;;;;;24.13;42.64;98576.78;4483975;32;34624;-62
2021/05/14 04:20:05;;;;;;;7.90;1.48;;;;;;;24.15;42.68;98574.66;4485215;32;33878;-61
2021/05/14 04:22:33;;;;;;;10.38;1.12;;;;;;;24.13;42.71;98576.78;4484787;32;33867;-61
2021/05/14 04:25:01;;;;;;;5.85;1.40;;;;;;;24.14;42.75;98583.06;4484957;32;34085;-60
2021/05/14 04:27:29;;;;;;;8.40;1.25;;;;;;;24.15;42.74;98579.25;4485080;32;33908;-60
2021/05/14 04:29:56;;;;;;;10.90;1.02;;;;;;;24.13;42.82;98570.53;4484877;32;33589;-61
2021/05/14 04:32:24;;;;;;;8.23;1.23;;;;;;;24.13;42.88;98584.97;4478353;32;33839;-61
2021/05/14 04:34:53;;;;;;;3.83;0.93;;;;;;;24.14;42.86;98583.06;4481209;32;33324;-60
2021/05/14 04:37:21;;;;;;;6.05;1.08;;;;;;;24.13;42.85;98587.69;4484658;32;33720;-60
2021/05/14 04:39:49;;;;;;;3.95;1.12;;;;;;;24.13;42.77;98586.88;4480429;32;35335;-60
2021/05/14 04:42:19;;;;;;;6.32;1.40;;;;;;;24.12;42.80;98585.25;4469299;32;33661;-61
2021/05/14 04:44:46;;;;;;;8.30;1.60;;;;;;;24.11;42.71;98584.41;4469317;32;33340;-60
2021/05/14 04:47:14;;;;;;;6.32;1.27;;;;;;;24.12;42.68;98586.06;4469366;32;33619;-61
2021/05/14 04:49:42;;;;;;;5.87;1.02;;;;;;;24.10;42.67;98582.75;4473983;32;33842;-66
2021/05/14 04:52:21;;;;;;;8.55;1.08;;;;;;;24.08;42.63;98581.38;4484775;32;34205;-61
2021/05/14 04:54:49;;;;;;;;;;;;;;;24.11;42.64;98589.06;4485294;32;33272;-61
2021/05/14 04:57:16;;;;;;;18.95;2.47;;;;;;;24.20;42.35;98595.62;4483394;32;34093;-61
2021/05/14 04:59:44;;;;;;;19.25;2.42;;;;;;;24.10;42.56;98599.09;4484406;32;33957;-61
2021/05/14 05:02:12;;;;;;;14.48;2.03;;;;;;;24.09;42.64;98594.75;4483539;32;34771;-61
2021/05/14 05:04:39;;;;;;;23.30;2.12;;;;;;;24.06;42.66;98598.00;4483729;32;33268;-61
2021/05/14 05:07:07;;;;;;;15.13;2.47;;;;;;;24.07;42.72;98598.81;4483082;32;35665;-61
2021/05/14 05:09:35;;;;;;;36.50;4.82;;;;;;;24.06;42.65;98603.47;4484497;32;35079;-61
2021/05/14 05:12:03;;;;;;;15.57;2.17;;;;;;;24.07;42.62;98601.56;4484297;32;33830;-61
2021/05/14 05:14:31;;;;;;;20.80;3.00;;;;;;;24.07;42.57;98607.00;4484500;32;33421;-61
2021/05/14 05:16:59;;;;;;;13.10;1.92;;;;;;;24.07;42.54;98607.81;4484445;32;34514;-60
2021/05/14 05:19:26;;;;;;;15.30;2.35;;;;;;;24.05;42.51;98607.25;4484244;32;34616;-61
2021/05/14 05:21:54;;;;;;;16.42;2.55;;;;;;;24.06;42.43;98611.63;4484488;32;34579;-61
2021/05/14 05:24:22;;;;;;;13.40;1.92;;;;;;;24.06;42.40;98614.34;4484449;32;34083;-61
2021/05/14 05:26:50;;;;;;;17.00;2.67;;;;;;;24.06;42.37;98617.09;4484127;32;33814;-61
2021/05/14 05:29:18;;;;;;;13.70;1.77;;;;;;;24.06;42.37;98627.13;4484375;32;33801;-61
2021/05/14 05:31:45;;;;;;;11.48;1.92;;;;;;;24.05;42.34;98626.31;4484290;32;34492;-61
2021/05/14 05:34:13;;;;;;;11.75;1.70;;;;;;;24.05;42.29;98636.41;4483875;32;34281;-61
2021/05/14 05:36:40;;;;;;;15.93;2.40;;;;;;;24.04;42.29;98638.31;4484369;32;35248;-61
2021/05/14 05:39:08;;;;;;;11.27;1.70;;;;;;;24.03;42.24;98633.94;4484180;32;33797;-60
2021/05/14 05:41:36;;;;;;;12.00;2.35;;;;;;;24.04;42.21;98643.75;4484377;32;34667;-61
2021/05/14 05:44:03;;;;;;;15.38;1.80;;;;;;;24.03;42.19;98642.13;4484399;32;33990;-60
2021/05/14 05:46:34;;;;;;;11.02;1.62;;;;;;;24.03;42.18;98647.56;4484360;32;34770;-61
2021/05/14 05:49:02;;;;;;;13.02;1.83;;;;;;;24.03;42.16;98642.13;4477486;32;34797;-61
2021/05/14 05:51:31;;;;;;;12.35;1.87;;;;;;;24.03;42.15;98647.56;4481997;32;33924;-61
2021/05/14 05:53:59;;;;;;;11.10;1.90;;;;;;;24.03;42.16;98653.00;4476926;32;33357;-61
2021/05/14 05:56:26;;;;;;;11.15;1.52;;;;;;;24.04;42.10;98648.38;4475066;32;33601;-61
2021/05/14 05:58:58;;;;;;;13.00;1.58;;;;;;;24.03;42.07;98655.75;4476587;32;33980;-61
2021/05/14 06:01:26;;;;;;;10.88;1.62;;;;;;;24.02;42.08;98650.56;4475103;32;33806;-61
2021/05/14 06:03:55;;;;;;;8.00;1.70;;;;;;;24.01;42.09;98648.88;4479047;32;34066;-61
2021/05/14 06:06:22;;;;;;;14.02;1.70;;;;;;;24.00;42.05;98647.25;4475197;32;33707;-61
2021/05/14 06:08:50;;;;;;;9.85;1.92;;;;;;;24.01;42.04;98657.88;4468303;32;34806;-61
2021/05/14 06:11:18;;;;;;;6.55;1.40;;;;;;;24.01;42.03;98659.78;4468558;32;33881;-61
2021/05/14 06:13:45;;;;;;;10.88;2.00;;;;;;;24.01;42.02;98659.78;4468491;32;34400;-61
2021/05/14 06:16:14;;;;;;;15.13;2.10;;;;;;;24.02;41.97;98666.91;4468253;32;35532;-60
2021/05/14 06:18:46;;;;;;;11.20;2.03;;;;;;;24.00;41.96;98667.13;4468535;32;34053;-61
2021/05/14 06:21:14;;;;;;;6.07;1.45;;;;;;;24.01;41.92;98674.22;4468501;32;33757;-61
2021/05/14 06:23:42;;;;;;;7.30;1.87;;;;;;;24.00;41.91;98666.31;4468571;32;33369;-61
2021/05/14 06:26:09;;;;;;;11.12;2.12;;;;;;;23.99;41.91;98670.94;4468246;32;33805;-62
2021/05/14 06:28:37;;;;;;;6.90;1.70;;;;;;;24.00;41.90;98679.94;4468524;32;33941;-61
2021/05/14 06:31:05;;;;;;;5.65;1.50;;;;;;;24.00;41.89;98680.75;4468569;32;33860;-61
2021/05/14 06:33:32;;;;;;;10.40;1.65;;;;;;;24.00;41.87;98679.94;4468436;32;33264;-61
2021/05/14 06:36:01;;;;;;;8.98;2.03;;;;;;;24.00;41.85;98693.56;4468114;32;33840;-61
2021/05/14 06:38:29;;;;;;;7.27;1.27;;;;;;;23.99;41.83;98690.03;4468316;32;33844;-61
2021/05/14 06:40:57;;;;;;;7.30;2.20;;;;;;;24.00;41.80;98694.38;4468273;32;34563;-61
2021/05/14 06:43:24;;;;;;;7.57;1.52;;;;;;;23.99;41.79;98702.81;4479865;32;33527;-61
2021/05/14 06:45:52;;;;;;;11.85;1.65;;;;;;;23.99;41.78;98706.37;4484076;32;34544;-61
2021/05/14 06:48:20;;;;;;;5.95;1.65;;;;;;;23.98;41.79;98703.91;4483935;32;33910;-61
2021/05/14 06:50:47;;;;;;;11.40;1.60;;;;;;;23.98;41.79;98701.19;4483735;32;34362;-61
2021/05/14 06:53:17;;;;;;;8.00;1.40;;;;;;;23.99;41.77;98708.28;4482155;32;34391;-61
2021/05/14 06:55:44;;;;;;;7.78;1.60;;;;;;;23.97;41.77;98705.81;4477288;32;33924;-61
2021/05/14 06:58:12;;;;;;;6.03;1.40;;;;;;;23.98;41.74;98712.09;4483267;32;33852;-61
2021/05/14 07:00:39;;;;;;;9.48;1.52;;;;;;;23.97;41.72;98700.38;4468337;32;34382;-61
2021/05/14 07:03:07;;;;;;;8.75;1.73;;;;;;;23.97;41.71;98707.69;4481224;32;33118;-61
2021/05/14 07:05:35;;;;;;;7.20;1.30;;;;;;;23.98;41.71;98712.09;4483522;32;33801;-61
2021/05/14 07:08:03;;;;;;;7.68;1.35;;;;;;;23.97;41.71;98707.69;4483648;32;34854;-61
2021/05/14 07:10:31;;;;;;;4.10;1.35;;;;;;;23.97;41.70;98714.00;4483272;32;33779;-61
2021/05/14 07:12:58;;;;;;;5.50;1.27;;;;;;;23.96;41.69;98708.78;4467832;32;33135;-61
2021/05/14 07:15:26;;;;;;;6.43;1.55;;;;;;;23.97;41.69;98710.41;4467456;32;34776;-61
2021/05/14 07:17:54;;;;;;;4.53;1.30;;;;;;;23.96;41.69;98723.22;4468233;32;33591;-61
2021/05/14 07:20:22;;;;;;;5.85;1.58;;;;;;;23.96;41.67;98712.31;4467769;32;33844;-61
2021/05/14 07:22:49;;;;;;;6.70;1.40;;;;;;;23.96;41.67;98716.97;4467848;32;33296;-61
2021/05/14 07:25:17;;;;;;;5.28;1.60;;;;;;;23.95;41.66;98718.84;4467905;32;33237;-61
2021/05/14 07:27:45;;;;;;;2.97;1.20;;;;;;;23.95;41.65;98727.03;4467719;32;33834;-61
2021/05/14 07:30:13;;;;;;;5.87;1.40;;;;;;;23.96;41.62;98733.31;4467818;32;34662;-61
2021/05/14 07:32:41;;;;;;;5.18;1.37;;;;;;;23.96;41.63;98728.66;4467725;32;34996;-61
2021/05/14 07:35:09;;;;;;;5.85;1.25;;;;;;;23.94;41.62;98730.84;4467370;32;34558;-61
2021/05/14 07:37:37;;;;;;;4.90;1.30;;;;;;;23.95;41.59;98731.66;4479750;32;33902;-62
2021/05/14 07:40:05;;;;;;;4.87;1.35;;;;;;;23.95;41.58;98735.22;4483540;32;34435;-62
2021/05/14 07:42:32;;;;;;;4.75;1.50;;;;;;;23.95;41.58;98740.66;4482124;32;33317;-63
2021/05/14 07:45:00;;;;;;;6.25;1.30;;;;;;;23.95;41.57;98739.84;4483296;32;33935;-62
2021/05/14 07:47:28;;;;;;;4.65;1.33;;;;;;;23.95;41.54;98739.84;4483129;32;33826;-62
2021/05/14 07:49:55;;;;;;;5.03;1.00;;;;;;;23.93;41.52;98738.19;4483009;32;34135;-62
2021/05/14 07:52:23;;;;;;;7.12;1.40;;;;;;;23.95;41.54;98737.13;4483247;32;32998;-62
2021/05/14 07:54:51;;;;;;;4.70;1.30;;;;;;;23.95;41.52;98737.94;4482961;32;33620;-62
2021/05/14 07:57:20;;;;;;;3.53;1.30;;;;;;;23.95;41.51;98739.84;4483038;32;34544;-62
2021/05/14 07:59:48;;;;;;;6.37;1.20;;;;;;;23.96;41.48;98744.19;4483094;32;34286;-61
2021/05/14 08:02:16;;;;;;;5.15;1.40;;;;;;;23.95;41.49;98748.00;4483245;32;33715;-62
2021/05/14 08:04:44;;;;;;;6.20;1.80;;;;;;;23.95;41.49;98742.56;4483036;32;33935;-62
2021/05/14 08:07:12;;;;;;;4.37;1.08;;;;;;;23.95;41.48;98745.28;4482964;32;33954;-62
2021/05/14 08:09:41;;;;;;;5.00;1.48;;;;;;;23.95;41.46;98748.00;4482811;32;33756;-62
2021/05/14 08:12:10;;;;;;;5.03;1.00;;;;;;;23.94;41.46;98760.81;4482840;32;33244;-61
2021/05/14 08:14:37;;;;;;;3.00;1.25;;;;;;;23.95;41.46;98758.91;4482995;32;34525;-62
2021/05/14 08:17:05;;;;;;;7.10;1.55;;;;;;;23.95;41.47;98759.72;4482501;32;33908;-61
2021/05/14 08:19:33;;;;;;;19.30;2.00;;;;;;;23.94;41.45;98763.53;4482675;32;34072;-62
2021/05/14 08:22:00;;;;;;;2.60;1.00;;;;;;;23.95;41.40;98769.81;4482704;32;33501;-60
2021/05/14 08:24:28;;;;;;;3.30;0.93;;;;;;;23.93;41.42;98779.06;4482565;32;34601;-62
2021/05/14 08:26:56;;;;;;;6.45;1.35;;;;;;;23.95;41.44;98777.97;4482670;32;33943;-62
2021/05/14 08:29:25;;;;;;;9.40;1.50;;;;;;;23.93;41.44;98778.25;4484570;32;33035;-61
2021/05/14 08:31:53;;;;;;;3.53;1.27;;;;;;;23.94;41.41;98777.16;4484637;32;33366;-62
2021/05/14 08:34:21;;;;;;;3.67;1.20;;;;;;;23.94;41.41;98785.34;4484777;32;33829;-61
2021/05/14 08:36:48;;;;;;;7.18;1.45;;;;;;;23.93;41.40;98779.06;4484793;32;33828;-62
2021/05/14 08:39:18;;;;;;;3.83;1.17;;;;;;;23.93;41.39;98784.50;4484630;32;33872;-61
2021/05/14 08:41:48;;;;;;;;;;;;;;;23.94;41.39;98790.78;4485048;32;33368;-62
2021/05/14 08:44:15;;;;;;;6.43;1.15;;;;;;;24.02;41.18;98784.88;4484764;32;34643;-62
2021/05/14 08:46:43;;;;;;;6.50;1.20;;;;;;;23.95;41.33;98791.59;4484509;32;33930;-60
2021/05/14 08:49:15;;;;;;;1.85;0.80;;;;;;;23.93;41.39;98794.59;4471137;32;33531;-61
2021/05/14 08:51:43;;;;;;;4.00;1.42;;;;;;;23.91;41.40;98794.81;4480189;32;33241;-62
2021/05/14 08:54:11;;;;;;;3.08;0.90;;;;;;;23.92;41.40;98798.38;4483532;32;34221;-61
2021/05/14 08:56:39;;;;;;;2.92;1.10;;;;;;;23.92;41.38;98801.09;4477533;32;35556;-61
2021/05/14 08:59:06;;;;;;;3.40;0.90;;;;;;;23.92;41.38;98803.81;4475742;32;33573;-61
2021/05/14 09:01:37;;;;;;;4.22;1.15;;;;;;;23.92;41.37;98798.38;4471102;32;32925;-61
2021/05/14 09:04:07;;;;;;;6.12;1.30;;;;;;;23.91;41.39;98804.91;4476690;32;34864;-61
2021/05/14 09:06:41;;;;;;;2.95;1.00;;;;;;;23.91;41.37;98796.72;4472853;32;33920;-62
2021/05/14 09:09:09;;;;;;;4.20;1.15;;;;;;;23.92;41.35;98801.94;4468738;32;34933;-62
2021/05/14 09:11:48;;;;;;;4.07;1.20;;;;;;;23.92;41.36;98814.72;4467936;32;34645;-62
2021/05/14 09:14:35;;;;;;;3.22;1.10;;;;;;;23.92;41.35;98810.13;4469645;32;33625;-62
2021/05/14 09:17:13;;;;;;;5.30;1.30;;;;;;;23.93;41.32;98811.75;4479633;32;33809;-61
2021/05/14 09:19:42;;;;;;;2.85;0.82;;;;;;;23.92;41.35;98812.84;4484684;32;33832;-62
2021/05/14 09:22:10;;;;;;;3.42;0.95;;;;;;;23.92;41.34;98820.16;4484584;32;34124;-62
2021/05/14 09:24:37;;;;;;;4.35;1.02;;;;;;;23.91;41.34;98813.91;4477204;32;34104;-61
2021/05/14 09:27:33;;;;;;;4.00;1.08;;;;;;;23.91;41.33;98813.91;4474399;32;33785;-62
2021/05/14 09:30:02;;;;;;;2.72;1.00;;;;;;;23.94;41.28;98815.31;4468833;32;33863;-62
2021/05/14 09:32:32;;;;;;;6.12;1.37;;;;;;;23.92;41.33;98822.88;4482078;32;34087;-62
2021/05/14 09:35:01;;;;;;;2.78;1.00;;;;;;;23.91;41.33;98823.97;4484300;32;33849;-62
2021/05/14 09:37:28;;;;;;;2.53;0.98;;;;;;;23.92;41.30;98820.16;4484494;32;34528;-62
2021/05/14 09:40:16;;;;;;;3.10;1.05;;;;;;;23.91;41.28;98827.53;4484529;32;33655;-61
2021/05/14 09:42:44;;;;;;;3.80;1.17;;;;;;;23.95;41.24;98825.13;4484690;32;34068;-62
2021/05/14 09:45:19;;;;;;;1.90;0.82;;;;;;;23.91;41.28;98832.97;4484488;32;33803;-62
2021/05/14 09:48:00;;;;;;;3.08;0.90;;;;;;;23.91;41.30;98827.53;4484157;32;33730;-62
2021/05/14 09:50:36;;;;;;;3.17;0.98;;;;;;;23.93;41.27;98833.56;4484312;32;34774;-62
2021/05/14 09:53:08;;;;;;;4.55;0.90;;;;;;;23.90;41.28;98830.50;4484097;32;33791;-62
2021/05/14 09:55:37;;;;;;;3.03;0.90;;;;;;;23.91;41.27;98838.41;4484397;32;33789;-62
2021/05/14 09:58:09;;;;;;;2.12;1.12;;;;;;;23.91;41.27;98837.59;4484147;32;33581;-63
2021/05/14 10:00:37;;;;;;;2.05;0.80;;;;;;;23.90;41.28;98834.06;4484090;32;33952;-62
2021/05/14 10:03:05;;;;;;;4.22;1.20;;;;;;;23.90;41.27;98838.69;4484272;32;33397;-62
2021/05/14 10:05:34;;;;;;;4.62;1.10;;;;;;;23.91;41.26;98845.78;4484022;32;34585;-62
2021/05/14 10:08:05;;;;;;;2.40;0.80;;;;;;;23.90;41.26;98836.78;4484140;32;33683;-62
2021/05/14 10:10:35;;;;;;;4.28;1.12;;;;;;;23.90;41.24;98838.69;4484171;32;34896;-62
2021/05/14 10:13:03;;;;;;;2.00;1.00;;;;;;;23.91;41.24;98834.87;4483925;32;33336;-63
2021/05/14 10:15:32;;;;;;;3.10;0.90;;;;;;;23.92;41.21;98839.25;4484145;32;33466;-62
2021/05/14 10:18:01;;;;;;;4.57;0.90;;;;;;;23.91;41.24;98829.41;4483087;32;33757;-61
2021/05/14 10:20:29;;;;;;;15.75;2.05;;;;;;;23.92;41.20;98836.50;4484107;32;34726;-62
2021/05/14 10:22:58;;;;;;;17.70;2.78;;;;;;;23.92;41.26;98847.41;4484080;32;34375;-63
2021/05/14 10:25:34;;;;;;;28.12;2.85;;;;;;;23.93;41.42;98841.72;4476797;32;33772;-61
2021/05/14 10:28:06;;;;;;;20.40;2.30;;;;;;;23.93;41.38;98840.91;4479331;32;33910;-61
2021/05/14 10:30:34;;;;;;;25.52;2.75;;;;;;;23.92;41.41;98845.53;4481843;32;34856;-61
2021/05/14 10:33:03;;;;;;;22.90;3.10;;;;;;;23.93;41.39;98846.34;4467146;32;34183;-61
2021/05/14 10:35:31;;;;;;;16.05;2.65;;;;;;;23.93;41.39;98843.63;4481931;32;34465;-61
2021/05/14 10:38:05;;;;;;;22.30;2.83;;;;;;;23.91;41.38;98841.13;4483762;32;33866;-61
2021/05/14 10:40:33;;;;;;;21.25;3.25;;;;;;;23.93;41.35;98846.34;4477160;32;33778;-61
2021/05/14 10:43:20;;;;;;;20.27;2.80;;;;;;;23.92;41.34;98842.81;4468411;32;34060;-61
2021/05/14 10:45:49;;;;;;;26.15;2.40;;;;;;;23.92;41.34;98848.25;4469713;32;33776;-61
2021/05/14 10:48:18;;;;;;;15.85;2.67;;;;;;;23.93;41.31;98843.63;4483973;32;33448;-61
2021/05/14 10:50:55;;;;;;;16.23;2.60;;;;;;;23.93;41.28;98846.34;4482734;32;33862;-61
2021/05/14 10:53:36;;;;;;;16.15;3.20;;;;;;;23.93;41.32;98849.91;4483933;32;33502;-61
2021/05/14 10:56:10;;;;;;;13.35;2.25;;;;;;;23.94;41.29;98853.44;4483689;32;35433;-61
2021/05/14 10:58:51;;;;;;;13.77;3.03;;;;;;;23.92;41.28;98859.16;4483937;32;34854;-61
2021/05/14 11:01:38;;;;;;;11.93;1.87;;;;;;;23.92;41.30;98866.47;4483694;32;34010;-61
2021/05/14 11:04:12;;;;;;;16.23;2.17;;;;;;;23.93;41.24;98868.97;4483900;32;33443;-61
2021/05/14 11:06:44;;;;;;;14.65;2.17;;;;;;;23.90;41.28;98861.28;4483868;32;33559;-61
2021/05/14 11:09:12;;;;;;;21.15;2.53;;;;;;;23.90;41.31;98865.91;4483856;32;33520;-61
2021/05/14 11:11:56;;;;;;;14.38;1.90;;;;;;;23.90;41.28;98868.66;4483583;32;34538;-61
2021/05/14 11:14:25;;;;;;;20.33;2.45;;;;;;;23.90;41.25;98864.03;4483760;32;34192;-61
2021/05/14 11:16:56;;;;;;;15.00;2.42;;;;;;;23.90;41.24;98880.37;4483614;32;34607;-61
2021/05/14 11:19:29;;;;;;;10.27;2.03;;;;;;;23.90;41.26;98883.09;4482385;32;34230;-62
2021/05/14 11:21:59;;;;;;;14.25;2.50;;;;;;;23.89;41.28;98870.56;4483632;32;34902;-61
2021/05/14 11:24:32;;;;;;;12.65;1.85;;;;;;;23.90;41.26;98871.38;4471922;32;33431;-60
2021/05/14 11:27:00;;;;;;;12.57;1.70;;;;;;;23.89;41.27;98865.09;4467891;32;33804;-61
2021/05/14 11:29:33;;;;;;;15.45;1.60;;;;;;;23.91;41.23;98864.84;4468184;32;34569;-61
2021/05/14 11:32:16;;;;;;;6.87;1.40;;;;;;;23.90;41.18;98863.19;4477843;32;34502;-61
2021/05/14 11:34:56;;;;;;;12.52;1.60;;;;;;;23.93;41.15;98859.97;4483292;32;33273;-61
2021/05/14 11:37:40;;;;;;;12.25;2.00;;;;;;;23.93;41.15;98866.25;4483438;32;33828;-61
2021/05/14 11:40:18;;;;;;;8.95;2.35;;;;;;;23.91;41.15;98856.66;4483434;32;34745;-61
2021/05/14 11:42:47;;;;;;;12.57;1.90;;;;;;;23.91;41.15;98870.28;4481054;32;33796;-61
2021/05/14 11:45:19;;;;;;;10.55;1.87;;;;;;;23.89;41.15;98862.38;4482140;32;33249;-61